Pittsfield, IL

1:23 AM CST on December 08, 2016 (GMT -0600)
Pittsfield Penstone Municipal

Weather History for KPPQ - March, 2013

Change the Weather History Date:

Friday, March 29, 2013

  Actual Average (KUIN) Record (KUIN)
Temperature  
Mean Temperature 46 °F 47 °F  
Max Temperature 57 °F 57 °F 85 °F (1986)
Min Temperature 34 °F 37 °F 18 °F (1969)
Degree Days  
Heating Degree Days 20 18  
Month to date heating degree days 684  
Since 1 July heating degree days 5026  
Cooling Degree Days 0 0  
Month to date cooling degree days 0  
Year to date cooling degree days 0  
Moisture  
Dew Point 37 °F    
Average Humidity 71    
Maximum Humidity 87    
Minimum Humidity 55    
Precipitation  
Precipitation 0.00 in 0.09 in 2.25 in (1914)
Month to date precipitation 2.27  
Year to date precipitation 5.67  
Sea Level Pressure  
Sea Level Pressure 30.24 in    
Wind  
Wind Speed 6 mph (ENE)    
Max Wind Speed 9 mph    
Max Gust Speed -    
Visibility 10 miles    
Events      
T = Trace of Precipitation, MM = Missing Value Source: NWS Daily Summary

Daily Weather History Graph

Daily Weather History Graph

Search for Another Location

Airport or City:

Trip Planner

Search our weather history database for the weather conditions in past years. The results will help you decide how hot, cold, wet, or windy it might be!

Date:

Astronomy

Mar. 29, 2013 Rise Set
Actual Time 6:51 AM CDT 7:24 PM CDT
Civil Twilight 6:24 AM CDT 7:51 PM CDT
Nautical Twilight 5:52 AM CDT 8:23 PM CDT
Astronomical Twilight 5:20 AM CDT 8:56 PM CDT
Moon 10:24 PM CDT (3/29) 8:01 AM CDT (3/29)
Length of Visible Light 13h 26m
Length of Day
12h 32m
Waning Gibbous, 93% of the Moon is Illuminated
Mar 29
Waning Gibbous
Apr 2
Last Quarter
Apr 10
New
Apr 18
First Quarter
Apr 25
Full

Hourly Weather History & Observations

Time (CDT) Temp. Windchill Dew Point Humidity Pressure Visibility Wind Dir Wind Speed Gust Speed Precip Events Conditions
12:15 AM 39.4 °F 36.1 °F 32.4 °F 76% 30.27 in 10.0 mi ENE 4.6 mph - N/A   Overcast
12:35 AM 39.6 °F 35.4 °F 32.2 °F 75% 30.27 in 10.0 mi NE 5.8 mph - N/A   Overcast
12:55 AM 39.2 °F 35.0 °F 32.2 °F 76% 30.26 in 10.0 mi ENE 5.8 mph - N/A   Overcast
1:15 AM 38.5 °F 35.0 °F 32.0 °F 78% 30.26 in 10.0 mi NE 4.6 mph - N/A   Mostly Cloudy
1:35 AM 38.5 °F 34.1 °F 32.0 °F 78% 30.26 in 10.0 mi NE 5.8 mph - N/A   Mostly Cloudy
1:55 AM 38.8 °F 33.8 °F 32.0 °F 76% 30.26 in 10.0 mi NE 6.9 mph - N/A   Overcast
2:15 AM 38.8 °F 32.6 °F 32.0 °F 76% 30.25 in 10.0 mi NE 9.2 mph - N/A   Overcast
2:35 AM 38.3 °F 32.5 °F 32.0 °F 78% 30.25 in 10.0 mi NE 8.1 mph - N/A   Scattered Clouds
2:55 AM 37.6 °F 32.3 °F 32.0 °F 80% 30.25 in 10.0 mi NE 6.9 mph - N/A   Clear
3:15 AM 37.2 °F 31.9 °F 32.0 °F 81% 30.25 in 10.0 mi NE 6.9 mph - N/A   Scattered Clouds
3:35 AM 37.4 °F 32.8 °F 32.0 °F 81% 30.24 in 10.0 mi NE 5.8 mph - N/A   Mostly Cloudy
3:55 AM 37.2 °F 32.6 °F 32.0 °F 81% 30.24 in 10.0 mi NE 5.8 mph - N/A   Overcast
4:15 AM 36.3 °F 32.5 °F 32.0 °F 84% 30.23 in 10.0 mi ENE 4.6 mph - N/A   Mostly Cloudy
4:35 AM 35.6 °F 31.7 °F 31.6 °F 85% 30.23 in 10.0 mi NE 4.6 mph - N/A   Scattered Clouds
4:55 AM 35.1 °F 32.2 °F 31.5 °F 87% 30.23 in 10.0 mi ENE 3.5 mph - N/A   Clear
5:15 AM 35.2 °F 30.3 °F 31.5 °F 86% 30.23 in 10.0 mi NE 5.8 mph - N/A   Clear
5:35 AM 35.1 °F 30.1 °F 31.3 °F 86% 30.24 in 10.0 mi ENE 5.8 mph - N/A   Clear
5:55 AM 34.7 °F 30.6 °F 31.1 °F 87% 30.24 in 7.0 mi NE 4.6 mph - N/A   Clear
6:15 AM 35.2 °F 29.5 °F 31.1 °F 85% 30.25 in 10.0 mi NE 6.9 mph - N/A   Clear
6:35 AM 35.1 °F 29.3 °F 31.1 °F 85% 30.25 in 7.0 mi NE 6.9 mph - N/A   Clear
6:55 AM 35.1 °F 29.3 °F 31.1 °F 85% 30.26 in 7.0 mi NE 6.9 mph - N/A   Clear
7:15 AM 34.9 °F 29.9 °F 30.9 °F 85% 30.26 in 7.0 mi NE 5.8 mph - N/A   Clear
7:35 AM 35.1 °F 29.3 °F 30.9 °F 85% 30.27 in 7.0 mi NE 6.9 mph - N/A   Clear
7:55 AM 35.8 °F 31.9 °F 31.1 °F 83% 30.27 in 7.0 mi NE 4.6 mph - N/A   Clear
8:15 AM 36.9 °F 31.4 °F 31.6 °F 81% 30.27 in 7.0 mi ENE 6.9 mph - N/A   Clear
8:35 AM 38.7 °F 34.3 °F 31.8 °F 76% 30.27 in 10.0 mi ENE 5.8 mph - N/A   Clear
8:55 AM 40.1 °F 38.0 °F 32.2 °F 73% 30.27 in 10.0 mi ENE 3.5 mph - N/A   Clear
9:15 AM 41.5 °F 39.6 °F 32.7 °F 71% 30.27 in 10.0 mi NE 3.5 mph - N/A   Clear
9:35 AM 43.7 °F 42.1 °F 33.8 °F 68% 30.27 in 10.0 mi ENE 3.5 mph - N/A   Clear
9:55 AM 45.3 °F 43.0 °F 34.9 °F 67% 30.27 in 10.0 mi NE 4.6 mph - N/A   Clear
10:15 AM 46.4 °F 44.3 °F 35.6 °F 66% 30.28 in 10.0 mi NE 4.6 mph - N/A   Clear
10:35 AM 48.2 °F - 36.9 °F 65% 30.28 in 10.0 mi ENE 4.6 mph - N/A   Clear
10:55 AM 48.7 °F - 37.4 °F 65% 30.28 in 10.0 mi NE 4.6 mph - N/A   Clear
11:15 AM 48.7 °F - 37.9 °F 66% 30.28 in 10.0 mi North 6.9 mph - N/A   Clear
11:35 AM 50.0 °F - 39.2 °F 66% 30.28 in 10.0 mi North 6.9 mph - N/A   Clear
11:55 AM 51.6 °F - 40.3 °F 65% 30.28 in 10.0 mi NE 9.2 mph - N/A   Clear
12:15 PM 52.0 °F - 41.0 °F 66% 30.28 in 10.0 mi NE 8.1 mph - N/A   Clear
12:35 PM 53.1 °F - 41.0 °F 64% 30.27 in 10.0 mi NNE 8.1 mph - N/A   Clear
12:55 PM 54.0 °F - 41.5 °F 63% 30.27 in 10.0 mi NNE 6.9 mph - N/A   Clear
1:15 PM 54.5 °F - 40.8 °F 60% 30.26 in 10.0 mi ENE 8.1 mph - N/A   Clear
1:35 PM 55.4 °F - 42.3 °F 61% 30.25 in 10.0 mi ENE 6.9 mph - N/A   Clear
1:55 PM 55.6 °F - 42.3 °F 61% 30.25 in 10.0 mi East 4.6 mph - N/A   Clear
2:15 PM 56.1 °F - 42.1 °F 59% 30.25 in 10.0 mi NE 6.9 mph - N/A   Clear
2:35 PM 56.7 °F - 42.3 °F 59% 30.24 in 10.0 mi ENE 8.1 mph - N/A   Scattered Clouds
2:55 PM 56.7 °F - 42.1 °F 58% 30.24 in 10.0 mi NE 9.2 mph - N/A   Scattered Clouds
3:15 PM 56.7 °F - 41.9 °F 58% 30.23 in 10.0 mi NNE 5.8 mph - N/A   Clear
3:35 PM 56.7 °F - 41.4 °F 57% 30.23 in 10.0 mi ENE 4.6 mph - N/A   Clear
3:55 PM 56.8 °F - 42.8 °F 59% 30.22 in 10.0 mi ENE 8.1 mph - N/A   Scattered Clouds
4:15 PM 57.7 °F - 42.8 °F 57% 30.22 in 10.0 mi ESE 3.5 mph - N/A   Clear
4:35 PM 57.4 °F - 41.5 °F 56% 30.21 in 10.0 mi ESE 8.1 mph - N/A   Clear
4:55 PM 57.4 °F - 41.4 °F 55% 30.21 in 10.0 mi East 5.8 mph - N/A   Clear
5:15 PM 57.2 °F - 42.8 °F 59% 30.21 in 10.0 mi East 6.9 mph - N/A   Clear
5:35 PM 57.4 °F - 43.3 °F 59% 30.21 in 10.0 mi East 6.9 mph - N/A   Scattered Clouds
5:55 PM 55.8 °F - 41.4 °F 58% 30.21 in 10.0 mi ENE 3.5 mph - N/A   Clear
6:15 PM 55.9 °F - 40.8 °F 57% 30.21 in 10.0 mi East 4.6 mph - N/A   Scattered Clouds
6:35 PM 55.4 °F - 41.4 °F 59% 30.21 in 10.0 mi East 5.8 mph - N/A   Clear
6:55 PM 54.1 °F - 42.8 °F 66% 30.22 in 10.0 mi East 5.8 mph - N/A   Clear
7:15 PM 52.9 °F - 41.5 °F 65% 30.21 in 10.0 mi East 3.5 mph - N/A   Clear
7:35 PM 52.7 °F - 40.8 °F 64% 30.21 in 10.0 mi East 3.5 mph - N/A   Clear
7:55 PM 52.2 °F - 40.3 °F 64% 30.21 in 10.0 mi East 3.5 mph - N/A   Clear
8:15 PM 51.3 °F - 39.7 °F 65% 30.21 in 10.0 mi Calm Calm - N/A   Clear
8:35 PM 50.5 °F - 39.6 °F 66% 30.23 in 10.0 mi Calm Calm - N/A   Clear
8:55 PM 50.9 °F - 39.4 °F 65% 30.23 in 10.0 mi Calm Calm - N/A   Clear
9:15 PM 49.5 °F - 39.2 °F 68% 30.23 in 10.0 mi East 4.6 mph - N/A   Clear
9:35 PM 49.1 °F - 39.2 °F 69% 30.23 in 10.0 mi East 4.6 mph - N/A   Clear
9:55 PM 48.6 °F - 39.4 °F 71% 30.23 in 10.0 mi ESE 3.5 mph - N/A   Clear
10:15 PM 47.3 °F - 39.6 °F 74% 30.24 in 10.0 mi SE 3.5 mph - N/A   Clear
10:35 PM 47.3 °F - 40.1 °F 76% 30.23 in 10.0 mi ESE 3.5 mph - N/A   Clear
10:55 PM 47.5 °F - 39.9 °F 75% 30.23 in 10.0 mi ESE 3.5 mph - N/A   Clear
11:15 PM 47.7 °F - 39.7 °F 74% 30.23 in 10.0 mi ESE 3.5 mph - N/A   Clear
11:35 PM 46.2 °F - 39.2 °F 76% 30.22 in 10.0 mi Calm Calm - N/A   Clear
11:55 PM 43.7 °F 42.1 °F 39.0 °F 84% 30.21 in 10.0 mi East 3.5 mph - N/A   Clear